sensor_id;sensor_type;location;lat;lon;timestamp;pressure;altitude;pressure_sealevel;temperature;humidity
44148;BME280;29810;55.848;37.368;2023-06-22T00:02:16;99370.72;;;14.03;57.25
44148;BME280;29810;55.848;37.368;2023-06-22T00:05:20;99372.62;;;13.99;56.96
44148;BME280;29810;55.848;37.368;2023-06-22T00:08:21;99377.66;;;14.04;56.57
44148;BME280;29810;55.848;37.368;2023-06-22T00:11:24;99375.94;;;14.03;56.79
44148;BME280;29810;55.848;37.368;2023-06-22T00:14:25;99373.50;;;14.00;56.52
44148;BME280;29810;55.848;37.368;2023-06-22T00:17:28;99368.37;;;13.97;56.19
44148;BME280;29810;55.848;37.368;2023-06-22T00:20:30;99363.13;;;13.97;56.44
44148;BME280;29810;55.848;37.368;2023-06-22T00:23:33;99374.88;;;14.07;57.04
44148;BME280;29810;55.848;37.368;2023-06-22T00:26:35;99378.13;;;14.12;55.96
44148;BME280;29810;55.848;37.368;2023-06-22T00:29:40;99344.31;;;13.88;56.48
44148;BME280;29810;55.848;37.368;2023-06-22T00:32:43;99375.16;;;14.01;57.46
44148;BME280;29810;55.848;37.368;2023-06-22T00:35:45;99371.91;;;13.96;58.02
44148;BME280;29810;55.848;37.368;2023-06-22T00:38:47;99370.16;;;13.96;56.92
44148;BME280;29810;55.848;37.368;2023-06-22T00:41:53;99366.53;;;13.99;56.75
44148;BME280;29810;55.848;37.368;2023-06-22T00:44:54;99366.25;;;14.05;57.94
44148;BME280;29810;55.848;37.368;2023-06-22T00:48:00;99370.88;;;14.00;58.19
44148;BME280;29810;55.848;37.368;2023-06-22T00:51:07;99373.31;;;14.03;57.66
44148;BME280;29810;55.848;37.368;2023-06-22T00:54:13;99359.84;;;14.11;57.13
44148;BME280;29810;55.848;37.368;2023-06-22T00:57:15;99362.00;;;14.20;56.65
44148;BME280;29810;55.848;37.368;2023-06-22T01:00:21;99370.25;;;14.12;57.22
44148;BME280;29810;55.848;37.368;2023-06-22T01:03:23;99370.72;;;14.20;56.97
44148;BME280;29810;55.848;37.368;2023-06-22T01:06:32;99364.41;;;14.24;56.83
44148;BME280;29810;55.848;37.368;2023-06-22T01:09:52;99364.88;;;14.33;56.40
44148;BME280;29810;55.848;37.368;2023-06-22T01:16:30;99360.50;;;15.83;53.10
44148;BME280;29810;55.848;37.368;2023-06-22T01:19:44;99375.97;;;16.65;51.53
44148;BME280;29810;55.848;37.368;2023-06-22T01:26:42;99360.47;;;18.03;47.21
44148;BME280;29810;55.848;37.368;2023-06-22T01:29:44;99357.75;;;18.83;45.85
44148;BME280;29810;55.848;37.368;2023-06-22T01:32:50;99363.22;;;19.32;44.17
44148;BME280;29810;55.848;37.368;2023-06-22T01:35:52;99348.47;;;19.78;42.54
44148;BME280;29810;55.848;37.368;2023-06-22T01:38:55;99353.94;;;20.36;41.15
44148;BME280;29810;55.848;37.368;2023-06-22T01:41:58;99352.13;;;21.06;39.61
44148;BME280;29810;55.848;37.368;2023-06-22T01:45:05;99338.00;;;21.62;38.70
44148;BME280;29810;55.848;37.368;2023-06-22T01:48:07;99336.94;;;22.19;37.60
44148;BME280;29810;55.848;37.368;2023-06-22T01:51:11;99334.69;;;22.77;36.53
44148;BME280;29810;55.848;37.368;2023-06-22T01:54:14;99318.31;;;23.03;35.70
44148;BME280;29810;55.848;37.368;2023-06-22T01:57:17;99337.94;;;23.62;34.80
44148;BME280;29810;55.848;37.368;2023-06-22T02:00:21;99337.19;;;24.01;33.87
44148;BME280;29810;55.848;37.368;2023-06-22T02:03:30;99331.25;;;24.37;33.00
44148;BME280;29810;55.848;37.368;2023-06-22T02:06:37;99327.19;;;24.52;33.38
44148;BME280;29810;55.848;37.368;2023-06-22T02:09:45;99323.78;;;24.79;32.97
44148;BME280;29810;55.848;37.368;2023-06-22T02:12:48;99319.16;;;25.09;32.19
44148;BME280;29810;55.848;37.368;2023-06-22T02:15:53;99325.25;;;25.75;31.32
44148;BME280;29810;55.848;37.368;2023-06-22T02:18:56;99310.06;;;26.12;30.49
44148;BME280;29810;55.848;37.368;2023-06-22T02:22:03;99303.22;;;26.36;30.18
44148;BME280;29810;55.848;37.368;2023-06-22T02:25:07;99305.56;;;24.65;31.94
44148;BME280;29810;55.848;37.368;2023-06-22T02:28:08;99318.78;;;23.18;34.66
44148;BME280;29810;55.848;37.368;2023-06-22T02:31:12;99301.31;;;24.05;33.65
44148;BME280;29810;55.848;37.368;2023-06-22T02:34:14;99306.38;;;24.75;32.11
44148;BME280;29810;55.848;37.368;2023-06-22T02:37:21;99302.13;;;24.83;31.95
44148;BME280;29810;55.848;37.368;2023-06-22T02:40:26;99282.09;;;24.02;33.26
44148;BME280;29810;55.848;37.368;2023-06-22T02:43:31;99292.19;;;24.85;32.30
44148;BME280;29810;55.848;37.368;2023-06-22T02:46:32;99283.91;;;26.68;29.52
44148;BME280;29810;55.848;37.368;2023-06-22T02:49:36;99272.91;;;27.73;28.05
44148;BME280;29810;55.848;37.368;2023-06-22T02:52:37;99268.59;;;28.22;26.85
44148;BME280;29810;55.848;37.368;2023-06-22T02:55:43;99270.50;;;28.69;26.31
44148;BME280;29810;55.848;37.368;2023-06-22T02:58:44;99264.25;;;29.17;25.19
44148;BME280;29810;55.848;37.368;2023-06-22T03:01:47;99266.12;;;29.48;24.54
44148;BME280;29810;55.848;37.368;2023-06-22T03:04:50;99271.50;;;29.48;24.75
44148;BME280;29810;55.848;37.368;2023-06-22T03:07:52;99265.88;;;29.81;24.39
44148;BME280;29810;55.848;37.368;2023-06-22T03:10:55;99254.63;;;30.09;23.47
44148;BME280;29810;55.848;37.368;2023-06-22T03:13:58;99255.69;;;30.37;23.45
44148;BME280;29810;55.848;37.368;2023-06-22T03:17:00;99248.88;;;30.12;23.39
44148;BME280;29810;55.848;37.368;2023-06-22T03:20:06;99244.38;;;29.89;23.41
44148;BME280;29810;55.848;37.368;2023-06-22T03:23:10;99246.06;;;30.05;23.04
44148;BME280;29810;55.848;37.368;2023-06-22T03:26:15;99240.59;;;29.98;23.15
44148;BME280;29810;55.848;37.368;2023-06-22T03:29:17;99248.84;;;29.50;23.36
44148;BME280;29810;55.848;37.368;2023-06-22T03:32:20;99248.78;;;29.35;23.64
44148;BME280;29810;55.848;37.368;2023-06-22T03:35:22;99242.38;;;29.60;23.36
44148;BME280;29810;55.848;37.368;2023-06-22T03:38:25;99239.41;;;30.01;22.90
44148;BME280;29810;55.848;37.368;2023-06-22T03:41:27;99232.09;;;30.39;22.45
44148;BME280;29810;55.848;37.368;2023-06-22T03:44:31;99222.47;;;30.30;22.34
44148;BME280;29810;55.848;37.368;2023-06-22T03:47:33;99238.16;;;30.56;22.16
44148;BME280;29810;55.848;37.368;2023-06-22T03:50:37;99226.03;;;31.70;20.83
44148;BME280;29810;55.848;37.368;2023-06-22T03:53:39;99226.94;;;32.69;19.67
44148;BME280;29810;55.848;37.368;2023-06-22T03:56:41;99239.37;;;33.06;19.37
44148;BME280;29810;55.848;37.368;2023-06-22T03:59:44;99233.53;;;32.25;20.01
44148;BME280;29810;55.848;37.368;2023-06-22T04:02:54;99223.41;;;31.77;20.76
44148;BME280;29810;55.848;37.368;2023-06-22T04:05:57;99220.69;;;31.55;20.82
44148;BME280;29810;55.848;37.368;2023-06-22T04:08:59;99215.13;;;31.35;21.19
44148;BME280;29810;55.848;37.368;2023-06-22T04:12:03;99219.22;;;31.53;20.89
44148;BME280;29810;55.848;37.368;2023-06-22T04:15:06;99221.47;;;32.56;20.05
44148;BME280;29810;55.848;37.368;2023-06-22T04:18:13;99220.47;;;32.22;20.53
44148;BME280;29810;55.848;37.368;2023-06-22T04:21:17;99225.06;;;32.28;20.54
44148;BME280;29810;55.848;37.368;2023-06-22T04:24:22;99220.59;;;32.14;20.70
44148;BME280;29810;55.848;37.368;2023-06-22T04:27:24;99229.84;;;31.18;21.64
44148;BME280;29810;55.848;37.368;2023-06-22T04:30:27;99233.16;;;30.00;22.97
44148;BME280;29810;55.848;37.368;2023-06-22T04:33:31;99225.81;;;30.32;22.69
44148;BME280;29810;55.848;37.368;2023-06-22T04:36:38;99218.03;;;30.82;22.27
44148;BME280;29810;55.848;37.368;2023-06-22T04:39:39;99216.41;;;30.88;22.58
44148;BME280;29810;55.848;37.368;2023-06-22T04:42:43;99216.00;;;31.43;21.77
44148;BME280;29810;55.848;37.368;2023-06-22T04:45:53;99204.34;;;32.35;20.68
44148;BME280;29810;55.848;37.368;2023-06-22T04:48:55;99207.69;;;32.38;20.61
44148;BME280;29810;55.848;37.368;2023-06-22T04:51:57;99189.91;;;32.50;20.52
44148;BME280;29810;55.848;37.368;2023-06-22T04:55:00;99205.34;;;32.69;20.46
44148;BME280;29810;55.848;37.368;2023-06-22T04:58:01;99218.09;;;31.41;21.54
44148;BME280;29810;55.848;37.368;2023-06-22T05:01:07;99215.75;;;31.01;22.17
44148;BME280;29810;55.848;37.368;2023-06-22T05:04:10;99215.91;;;32.64;20.68
44148;BME280;29810;55.848;37.368;2023-06-22T05:07:14;99207.69;;;34.28;19.01
44148;BME280;29810;55.848;37.368;2023-06-22T05:10:16;99198.47;;;35.97;17.54
44148;BME280;29810;55.848;37.368;2023-06-22T05:13:20;99203.75;;;36.55;16.96
44148;BME280;29810;55.848;37.368;2023-06-22T05:16:25;99208.63;;;37.02;16.62
44148;BME280;29810;55.848;37.368;2023-06-22T05:19:29;99209.69;;;37.43;16.07
44148;BME280;29810;55.848;37.368;2023-06-22T05:22:34;99204.03;;;38.75;15.03
44148;BME280;29810;55.848;37.368;2023-06-22T05:25:37;99212.19;;;39.16;14.68
44148;BME280;29810;55.848;37.368;2023-06-22T05:28:38;99211.31;;;39.61;14.19
44148;BME280;29810;55.848;37.368;2023-06-22T05:31:41;99205.31;;;39.59;14.01
44148;BME280;29810;55.848;37.368;2023-06-22T05:34:42;99211.69;;;38.90;14.56
44148;BME280;29810;55.848;37.368;2023-06-22T05:37:45;99216.87;;;37.80;15.35
44148;BME280;29810;55.848;37.368;2023-06-22T05:40:47;99199.50;;;38.40;15.03
44148;BME280;29810;55.848;37.368;2023-06-22T05:43:51;99205.84;;;38.98;14.63
44148;BME280;29810;55.848;37.368;2023-06-22T05:46:52;99210.66;;;39.37;14.29
44148;BME280;29810;55.848;37.368;2023-06-22T05:49:56;99215.28;;;39.53;14.21
44148;BME280;29810;55.848;37.368;2023-06-22T05:52:57;99224.16;;;37.55;15.68
44148;BME280;29810;55.848;37.368;2023-06-22T05:56:01;99224.91;;;34.54;18.39
44148;BME280;29810;55.848;37.368;2023-06-22T05:59:04;99230.78;;;35.48;17.91
44148;BME280;29810;55.848;37.368;2023-06-22T06:02:07;99223.56;;;35.36;17.61
44148;BME280;29810;55.848;37.368;2023-06-22T06:05:12;99213.16;;;36.71;16.81
44148;BME280;29810;55.848;37.368;2023-06-22T06:08:17;99221.16;;;36.66;16.89
44148;BME280;29810;55.848;37.368;2023-06-22T06:11:20;99210.00;;;36.74;16.83
44148;BME280;29810;55.848;37.368;2023-06-22T06:14:22;99214.28;;;38.20;15.55
44148;BME280;29810;55.848;37.368;2023-06-22T06:17:24;99223.44;;;36.87;16.34
44148;BME280;29810;55.848;37.368;2023-06-22T06:20:26;99220.09;;;35.15;17.89
44148;BME280;29810;55.848;37.368;2023-06-22T06:23:32;99214.28;;;34.59;18.41
44148;BME280;29810;55.848;37.368;2023-06-22T06:26:33;99215.22;;;33.86;19.02
44148;BME280;29810;55.848;37.368;2023-06-22T06:29:38;99224.19;;;33.05;19.57
44148;BME280;29810;55.848;37.368;2023-06-22T06:32:41;99224.03;;;32.71;19.86
44148;BME280;29810;55.848;37.368;2023-06-22T06:35:45;99229.31;;;33.61;18.73
44148;BME280;29810;55.848;37.368;2023-06-22T06:38:47;99230.38;;;32.92;19.45
44148;BME280;29810;55.848;37.368;2023-06-22T06:41:50;99225.44;;;31.97;20.34
44148;BME280;29810;55.848;37.368;2023-06-22T06:44:54;99220.69;;;31.12;21.48
44148;BME280;29810;55.848;37.368;2023-06-22T06:47:57;99234.56;;;29.96;22.54
44148;BME280;29810;55.848;37.368;2023-06-22T06:50:59;99254.50;;;28.92;23.31
44148;BME280;29810;55.848;37.368;2023-06-22T06:54:02;99251.84;;;27.03;25.41
44148;BME280;29810;55.848;37.368;2023-06-22T06:57:06;99247.22;;;26.52;26.20
44148;BME280;29810;55.848;37.368;2023-06-22T07:00:11;99249.44;;;26.57;26.28
44148;BME280;29810;55.848;37.368;2023-06-22T07:03:16;99252.00;;;25.96;26.95
44148;BME280;29810;55.848;37.368;2023-06-22T07:06:19;99251.38;;;26.02;26.90
44148;BME280;29810;55.848;37.368;2023-06-22T07:09:20;99247.81;;;25.93;27.14
44148;BME280;29810;55.848;37.368;2023-06-22T07:12:24;99245.28;;;25.92;27.25
44148;BME280;29810;55.848;37.368;2023-06-22T07:15:26;99247.78;;;25.21;28.52
44148;BME280;29810;55.848;37.368;2023-06-22T07:18:28;99237.09;;;25.21;28.69
44148;BME280;29810;55.848;37.368;2023-06-22T07:21:30;99245.16;;;25.75;28.05
44148;BME280;29810;55.848;37.368;2023-06-22T07:24:32;99242.34;;;25.59;28.27
44148;BME280;29810;55.848;37.368;2023-06-22T07:27:33;99229.06;;;25.85;28.21
44148;BME280;29810;55.848;37.368;2023-06-22T07:30:38;99238.56;;;26.06;28.01
44148;BME280;29810;55.848;37.368;2023-06-22T07:33:39;99234.53;;;25.84;28.11
44148;BME280;29810;55.848;37.368;2023-06-22T07:36:43;99232.00;;;26.00;28.11
44148;BME280;29810;55.848;37.368;2023-06-22T07:39:51;99235.44;;;26.10;27.80
44148;BME280;29810;55.848;37.368;2023-06-22T07:42:57;99228.19;;;25.85;28.32
44148;BME280;29810;55.848;37.368;2023-06-22T07:45:58;99223.94;;;26.10;28.34
44148;BME280;29810;55.848;37.368;2023-06-22T07:49:03;99221.44;;;25.90;28.27
44148;BME280;29810;55.848;37.368;2023-06-22T07:52:05;99215.81;;;26.02;28.10
44148;BME280;29810;55.848;37.368;2023-06-22T07:55:09;99222.28;;;25.55;28.67
44148;BME280;29810;55.848;37.368;2023-06-22T07:58:11;99231.00;;;24.45;30.22
44148;BME280;29810;55.848;37.368;2023-06-22T08:01:14;99227.31;;;24.09;31.09
44148;BME280;29810;55.848;37.368;2023-06-22T08:04:17;99223.53;;;23.82;31.70
44148;BME280;29810;55.848;37.368;2023-06-22T08:07:18;99227.06;;;24.50;30.93
44148;BME280;29810;55.848;37.368;2023-06-22T08:10:22;99217.81;;;25.09;30.17
44148;BME280;29810;55.848;37.368;2023-06-22T08:13:24;99212.19;;;25.85;29.24
44148;BME280;29810;55.848;37.368;2023-06-22T08:16:27;99204.56;;;26.42;28.77
44148;BME280;29810;55.848;37.368;2023-06-22T08:19:28;99207.34;;;26.67;28.48
44148;BME280;29810;55.848;37.368;2023-06-22T08:22:31;99205.97;;;26.55;28.72
44148;BME280;29810;55.848;37.368;2023-06-22T08:25:35;99195.16;;;26.30;28.67
44148;BME280;29810;55.848;37.368;2023-06-22T08:28:37;99202.16;;;25.78;29.27
44148;BME280;29810;55.848;37.368;2023-06-22T08:31:39;99194.59;;;25.74;29.89
44148;BME280;29810;55.848;37.368;2023-06-22T08:34:43;99201.63;;;25.39;30.29
44148;BME280;29810;55.848;37.368;2023-06-22T08:37:44;99213.06;;;25.03;30.99
44148;BME280;29810;55.848;37.368;2023-06-22T08:40:52;99212.34;;;24.83;31.28
44148;BME280;29810;55.848;37.368;2023-06-22T08:43:54;99194.84;;;24.99;31.06
44148;BME280;29810;55.848;37.368;2023-06-22T08:46:56;99200.37;;;25.15;30.86
44148;BME280;29810;55.848;37.368;2023-06-22T08:49:57;99191.59;;;25.23;30.91
44148;BME280;29810;55.848;37.368;2023-06-22T08:53:01;99193.87;;;25.18;30.93
44148;BME280;29810;55.848;37.368;2023-06-22T08:56:02;99194.97;;;25.25;30.90
44148;BME280;29810;55.848;37.368;2023-06-22T08:59:05;99197.09;;;24.75;31.43
44148;BME280;29810;55.848;37.368;2023-06-22T09:02:08;99187.38;;;24.46;32.33
44148;BME280;29810;55.848;37.368;2023-06-22T09:05:12;99180.38;;;24.45;32.73
44148;BME280;29810;55.848;37.368;2023-06-22T09:08:14;99176.34;;;24.31;32.42
44148;BME280;29810;55.848;37.368;2023-06-22T09:11:16;99175.59;;;24.11;32.50
44148;BME280;29810;55.848;37.368;2023-06-22T09:14:19;99165.03;;;24.20;32.39
44148;BME280;29810;55.848;37.368;2023-06-22T09:17:22;99154.25;;;24.21;32.54
44148;BME280;29810;55.848;37.368;2023-06-22T09:20:25;99166.69;;;23.93;32.90
44148;BME280;29810;55.848;37.368;2023-06-22T09:23:37;99168.91;;;23.88;33.12
44148;BME280;29810;55.848;37.368;2023-06-22T09:26:43;99166.38;;;23.96;33.30
44148;BME280;29810;55.848;37.368;2023-06-22T09:29:48;99168.13;;;24.25;33.09
44148;BME280;29810;55.848;37.368;2023-06-22T09:32:49;99167.31;;;24.14;32.70
44148;BME280;29810;55.848;37.368;2023-06-22T09:35:52;99157.63;;;24.13;33.15
44148;BME280;29810;55.848;37.368;2023-06-22T09:38:53;99159.47;;;24.03;33.33
44148;BME280;29810;55.848;37.368;2023-06-22T09:42:02;99141.47;;;23.68;33.90
44148;BME280;29810;55.848;37.368;2023-06-22T09:45:05;99155.06;;;23.64;33.61
44148;BME280;29810;55.848;37.368;2023-06-22T09:48:09;99153.06;;;23.76;33.37
44148;BME280;29810;55.848;37.368;2023-06-22T09:51:11;99145.63;;;24.00;33.36
44148;BME280;29810;55.848;37.368;2023-06-22T09:54:13;99142.94;;;24.37;33.05
44148;BME280;29810;55.848;37.368;2023-06-22T09:57:15;99144.06;;;24.44;32.48
44148;BME280;29810;55.848;37.368;2023-06-22T10:00:18;99138.41;;;24.47;32.68
44148;BME280;29810;55.848;37.368;2023-06-22T10:03:21;99138.88;;;24.05;33.34
44148;BME280;29810;55.848;37.368;2023-06-22T10:06:23;99143.22;;;24.06;33.27
44148;BME280;29810;55.848;37.368;2023-06-22T10:09:27;99136.16;;;24.25;32.81
44148;BME280;29810;55.848;37.368;2023-06-22T10:12:29;99131.16;;;24.12;32.94
44148;BME280;29810;55.848;37.368;2023-06-22T10:15:32;99124.97;;;24.49;32.35
44148;BME280;29810;55.848;37.368;2023-06-22T10:18:33;99112.78;;;24.74;32.40
44148;BME280;29810;55.848;37.368;2023-06-22T10:21:36;99105.78;;;24.73;32.01
44148;BME280;29810;55.848;37.368;2023-06-22T10:24:38;99093.37;;;24.82;31.86
44148;BME280;29810;55.848;37.368;2023-06-22T10:27:47;99101.06;;;25.03;31.72
44148;BME280;29810;55.848;37.368;2023-06-22T10:30:49;99093.13;;;25.11;31.51
44148;BME280;29810;55.848;37.368;2023-06-22T10:33:54;99088.28;;;24.89;31.94
44148;BME280;29810;55.848;37.368;2023-06-22T10:36:55;99086.37;;;24.81;31.94
44148;BME280;29810;55.848;37.368;2023-06-22T10:39:58;99091.06;;;24.69;31.77
44148;BME280;29810;55.848;37.368;2023-06-22T10:43:00;99089.94;;;24.44;32.37
44148;BME280;29810;55.848;37.368;2023-06-22T10:46:03;99095.31;;;24.34;32.59
44148;BME280;29810;55.848;37.368;2023-06-22T10:49:04;99087.69;;;24.49;32.52
44148;BME280;29810;55.848;37.368;2023-06-22T10:52:08;99082.78;;;24.72;32.36
44148;BME280;29810;55.848;37.368;2023-06-22T10:55:10;99072.59;;;24.86;32.40
44148;BME280;29810;55.848;37.368;2023-06-22T10:58:13;99067.84;;;25.16;32.10
44148;BME280;29810;55.848;37.368;2023-06-22T11:01:14;99065.47;;;25.49;31.40
44148;BME280;29810;55.848;37.368;2023-06-22T11:04:17;99062.16;;;25.55;31.07
44148;BME280;29810;55.848;37.368;2023-06-22T11:07:19;99058.63;;;25.81;31.02
44148;BME280;29810;55.848;37.368;2023-06-22T11:10:22;99049.78;;;26.06;30.77
44148;BME280;29810;55.848;37.368;2023-06-22T11:13:24;99050.63;;;26.07;30.57
44148;BME280;29810;55.848;37.368;2023-06-22T11:16:28;99056.94;;;26.06;30.71
44148;BME280;29810;55.848;37.368;2023-06-22T11:19:29;99050.00;;;26.21;30.31
44148;BME280;29810;55.848;37.368;2023-06-22T11:22:32;99043.47;;;26.16;30.50
44148;BME280;29810;55.848;37.368;2023-06-22T11:25:34;99038.38;;;26.39;30.44
44148;BME280;29810;55.848;37.368;2023-06-22T11:28:37;99035.44;;;26.67;29.97
44148;BME280;29810;55.848;37.368;2023-06-22T11:31:39;99029.56;;;26.63;29.92
44148;BME280;29810;55.848;37.368;2023-06-22T11:34:42;99025.63;;;26.75;29.65
44148;BME280;29810;55.848;37.368;2023-06-22T11:37:43;99023.09;;;26.99;29.55
44148;BME280;29810;55.848;37.368;2023-06-22T11:40:46;99015.25;;;27.14;29.23
44148;BME280;29810;55.848;37.368;2023-06-22T11:43:48;99015.41;;;27.20;29.21
44148;BME280;29810;55.848;37.368;2023-06-22T11:46:53;99007.88;;;27.16;28.91
44148;BME280;29810;55.848;37.368;2023-06-22T11:49:58;99005.50;;;26.55;29.03
44148;BME280;29810;55.848;37.368;2023-06-22T11:53:04;99000.91;;;25.79;30.22
44148;BME280;29810;55.848;37.368;2023-06-22T11:56:05;99001.97;;;26.30;29.83
44148;BME280;29810;55.848;37.368;2023-06-22T11:59:08;98994.00;;;26.54;29.49
44148;BME280;29810;55.848;37.368;2023-06-22T12:02:09;98984.34;;;26.78;29.38
44148;BME280;29810;55.848;37.368;2023-06-22T12:05:12;98988.81;;;26.69;29.60
44148;BME280;29810;55.848;37.368;2023-06-22T12:08:13;98985.19;;;26.95;29.16
44148;BME280;29810;55.848;37.368;2023-06-22T12:11:16;98981.34;;;26.98;28.90
44148;BME280;29810;55.848;37.368;2023-06-22T12:14:18;98989.53;;;26.96;29.12
44148;BME280;29810;55.848;37.368;2023-06-22T12:17:21;98987.19;;;26.76;29.07
44148;BME280;29810;55.848;37.368;2023-06-22T12:20:22;98977.97;;;26.54;28.47
44148;BME280;29810;55.848;37.368;2023-06-22T12:23:25;98961.78;;;26.81;28.66
44148;BME280;29810;55.848;37.368;2023-06-22T12:26:26;98962.41;;;27.07;27.76
44148;BME280;29810;55.848;37.368;2023-06-22T12:29:29;98957.22;;;27.14;27.43
44148;BME280;29810;55.848;37.368;2023-06-22T12:32:31;98954.56;;;27.22;28.46
44148;BME280;29810;55.848;37.368;2023-06-22T12:35:35;98953.84;;;27.28;27.75
44148;BME280;29810;55.848;37.368;2023-06-22T12:38:36;98952.84;;;27.30;27.41
44148;BME280;29810;55.848;37.368;2023-06-22T12:41:39;98947.72;;;27.03;27.82
44148;BME280;29810;55.848;37.368;2023-06-22T12:44:41;98947.69;;;26.54;27.84
44148;BME280;29810;55.848;37.368;2023-06-22T12:47:44;98950.00;;;26.16;28.12
44148;BME280;29810;55.848;37.368;2023-06-22T12:50:45;98950.28;;;26.04;28.31
44148;BME280;29810;55.848;37.368;2023-06-22T12:53:50;98943.47;;;26.10;28.61
44148;BME280;29810;55.848;37.368;2023-06-22T12:56:51;98938.88;;;26.53;27.99
44148;BME280;29810;55.848;37.368;2023-06-22T12:59:55;98937.34;;;26.59;27.50
44148;BME280;29810;55.848;37.368;2023-06-22T13:02:57;98933.84;;;26.50;27.33
44148;BME280;29810;55.848;37.368;2023-06-22T13:06:00;98935.50;;;26.51;27.54
44148;BME280;29810;55.848;37.368;2023-06-22T13:09:01;98927.66;;;26.58;27.64
44148;BME280;29810;55.848;37.368;2023-06-22T13:12:04;98923.00;;;26.60;27.63
44148;BME280;29810;55.848;37.368;2023-06-22T13:15:06;98915.31;;;26.82;27.72
44148;BME280;29810;55.848;37.368;2023-06-22T13:18:10;98905.94;;;26.69;28.10
44148;BME280;29810;55.848;37.368;2023-06-22T13:21:11;98914.84;;;26.78;28.30
44148;BME280;29810;55.848;37.368;2023-06-22T13:24:14;98914.16;;;26.76;28.23
44148;BME280;29810;55.848;37.368;2023-06-22T13:27:15;98907.75;;;27.10;28.04
44148;BME280;29810;55.848;37.368;2023-06-22T13:30:18;98868.78;;;27.16;27.62
44148;BME280;29810;55.848;37.368;2023-06-22T13:33:20;98898.47;;;27.54;27.50
44148;BME280;29810;55.848;37.368;2023-06-22T13:36:23;98887.53;;;27.64;27.34
44148;BME280;29810;55.848;37.368;2023-06-22T13:39:24;98900.41;;;27.60;27.55
44148;BME280;29810;55.848;37.368;2023-06-22T13:42:27;98894.56;;;27.65;27.49
44148;BME280;29810;55.848;37.368;2023-06-22T13:45:28;98884.94;;;27.79;27.50
44148;BME280;29810;55.848;37.368;2023-06-22T13:48:32;98879.31;;;27.65;27.32
44148;BME280;29810;55.848;37.368;2023-06-22T13:51:34;98877.03;;;27.54;27.37
44148;BME280;29810;55.848;37.368;2023-06-22T13:54:37;98873.87;;;27.50;27.23
44148;BME280;29810;55.848;37.368;2023-06-22T13:57:38;98874.50;;;27.60;27.23
44148;BME280;29810;55.848;37.368;2023-06-22T14:00:41;98871.59;;;27.70;27.31
44148;BME280;29810;55.848;37.368;2023-06-22T14:03:44;98873.50;;;27.85;27.45
44148;BME280;29810;55.848;37.368;2023-06-22T14:06:48;98875.72;;;27.81;27.24
44148;BME280;29810;55.848;37.368;2023-06-22T14:09:50;98877.44;;;27.74;27.46
44148;BME280;29810;55.848;37.368;2023-06-22T14:12:52;98870.84;;;27.53;27.80
44148;BME280;29810;55.848;37.368;2023-06-22T14:15:57;98870.22;;;27.35;28.42
44148;BME280;29810;55.848;37.368;2023-06-22T14:18:58;98878.78;;;27.22;28.45
44148;BME280;29810;55.848;37.368;2023-06-22T14:22:02;98879.47;;;27.24;28.66
44148;BME280;29810;55.848;37.368;2023-06-22T14:25:04;98881.78;;;27.27;28.55
44148;BME280;29810;55.848;37.368;2023-06-22T14:28:06;98884.62;;;27.25;27.74
44148;BME280;29810;55.848;37.368;2023-06-22T14:31:08;98877.78;;;27.39;27.54
44148;BME280;29810;55.848;37.368;2023-06-22T14:34:11;98870.16;;;27.59;27.33
44148;BME280;29810;55.848;37.368;2023-06-22T14:37:12;98870.06;;;27.76;26.82
44148;BME280;29810;55.848;37.368;2023-06-22T14:40:15;98859.13;;;27.86;26.64
44148;BME280;29810;55.848;37.368;2023-06-22T14:43:17;98864.41;;;27.94;26.80
44148;BME280;29810;55.848;37.368;2023-06-22T14:46:20;98861.25;;;27.67;26.66
44148;BME280;29810;55.848;37.368;2023-06-22T14:49:21;98866.72;;;27.26;27.34
44148;BME280;29810;55.848;37.368;2023-06-22T14:52:24;98865.13;;;27.08;27.59
44148;BME280;29810;55.848;37.368;2023-06-22T14:55:26;98869.31;;;26.94;27.82
44148;BME280;29810;55.848;37.368;2023-06-22T14:58:30;98858.78;;;27.09;27.65
44148;BME280;29810;55.848;37.368;2023-06-22T15:01:34;98851.84;;;27.40;27.12
44148;BME280;29810;55.848;37.368;2023-06-22T15:04:39;98851.03;;;27.63;27.01
44148;BME280;29810;55.848;37.368;2023-06-22T15:07:40;98843.75;;;27.56;26.95
44148;BME280;29810;55.848;37.368;2023-06-22T15:10:43;98836.16;;;27.60;27.03
44148;BME280;29810;55.848;37.368;2023-06-22T15:13:45;98836.72;;;27.55;26.94
44148;BME280;29810;55.848;37.368;2023-06-22T15:16:48;98842.87;;;27.64;26.91
44148;BME280;29810;55.848;37.368;2023-06-22T15:19:49;98841.56;;;27.52;26.84
44148;BME280;29810;55.848;37.368;2023-06-22T15:22:52;98842.25;;;27.46;26.84
44148;BME280;29810;55.848;37.368;2023-06-22T15:25:54;98832.75;;;27.43;26.31
44148;BME280;29810;55.848;37.368;2023-06-22T15:28:57;98833.13;;;27.23;26.43
44148;BME280;29810;55.848;37.368;2023-06-22T15:31:58;98835.84;;;27.15;26.82
44148;BME280;29810;55.848;37.368;2023-06-22T15:35:00;98824.28;;;27.23;26.92
44148;BME280;29810;55.848;37.368;2023-06-22T15:38:02;98827.31;;;27.11;26.96
44148;BME280;29810;55.848;37.368;2023-06-22T15:41:05;98833.69;;;27.10;27.07
44148;BME280;29810;55.848;37.368;2023-06-22T15:44:07;98827.00;;;27.06;27.40
44148;BME280;29810;55.848;37.368;2023-06-22T15:47:09;98829.06;;;26.96;27.51
44148;BME280;29810;55.848;37.368;2023-06-22T15:50:11;98833.28;;;26.82;27.55
44148;BME280;29810;55.848;37.368;2023-06-22T15:53:14;98827.78;;;26.75;27.61
44148;BME280;29810;55.848;37.368;2023-06-22T15:56:15;98824.94;;;26.77;27.74
44148;BME280;29810;55.848;37.368;2023-06-22T15:59:19;98828.22;;;26.96;27.60
44148;BME280;29810;55.848;37.368;2023-06-22T16:02:21;98819.84;;;26.99;27.43
44148;BME280;29810;55.848;37.368;2023-06-22T16:05:24;98807.94;;;27.09;27.20